General Acha, Argentina
Current Conditions -  °F | °C
As of 12:00 AM on Sunday 23 Nov 2014 (Local Time) from SAZN Reporting Station
Clear Clear  
Wind Chill: 70°   Ceiling: Unl
Heat Index: 70°   Visibility: 6mi
Dew Point: 32°   Wind: 3mph
Humidity: 25%   Direction: 250°WSW
Pressure: 29.83"   Gusts: NA
Location:  37.38°S, 64.6°W
Report Text: SAZN 230300Z 25003KT CAVOK 21/00 Q1010
Loading
Personal Weather Stations






























Interactive Weather Map New forecast layout! Learn more

10-Day Weather Forecast

Advertisements
Track Severe Weather on mobile